createdAt,value
2022-11-27T00:00:59.508Z,106.03
2022-11-27T00:03:29.467Z,113.55
2022-11-27T00:05:59.374Z,106.47
2022-11-27T00:08:27.435Z,107.00
2022-11-27T00:10:55.474Z,116.10
2022-11-27T00:13:23.526Z,120.20
2022-11-27T00:15:52.180Z,114.15
2022-11-27T00:18:20.266Z,101.05
2022-11-27T00:20:49.750Z,105.38
2022-11-27T00:23:17.728Z,116.75
2022-11-27T00:25:51.863Z,105.53
2022-11-27T00:28:20.590Z,105.03
2022-11-27T00:30:48.967Z,105.47
2022-11-27T00:33:17.158Z,144.77
2022-11-27T00:35:45.473Z,108.15
2022-11-27T00:38:14.980Z,107.03
2022-11-27T00:40:43.047Z,123.68
2022-11-27T00:43:11.111Z,111.55
2022-11-27T00:45:39.145Z,124.55
2022-11-27T00:48:07.400Z,131.45
2022-11-27T00:50:35.681Z,120.88
2022-11-27T00:53:03.744Z,108.82
2022-11-27T00:55:33.234Z,117.40
2022-11-27T00:58:01.233Z,116.50
2022-11-27T01:00:29.221Z,115.47
2022-11-27T01:02:57.349Z,125.32
2022-11-27T01:05:25.392Z,141.32
2022-11-27T01:07:53.606Z,123.10
2022-11-27T01:10:21.669Z,117.30
2022-11-27T01:12:51.311Z,103.57
2022-11-27T01:15:19.497Z,107.35
2022-11-27T01:17:47.511Z,103.82
2022-11-27T01:20:15.594Z,95.57
2022-11-27T01:22:43.722Z,108.00
2022-11-27T01:25:11.854Z,105.38
2022-11-27T01:27:40.041Z,104.28
2022-11-27T01:30:11.088Z,103.63
2022-11-27T01:32:39.035Z,110.10
2022-11-27T01:35:07.943Z,106.10
2022-11-27T01:37:35.972Z,125.22
2022-11-27T01:40:04.089Z,107.47
2022-11-27T01:42:32.088Z,120.60
2022-11-27T01:45:00.093Z,116.70
2022-11-27T01:47:41.101Z,111.72
2022-11-27T01:50:18.325Z,121.88
2022-11-27T01:52:50.993Z,129.70
2022-11-27T01:55:24.808Z,120.70
2022-11-27T01:57:56.408Z,108.07
2022-11-27T02:00:24.941Z,111.78
2022-11-27T02:02:54.444Z,111.18
2022-11-27T02:05:25.849Z,106.50
2022-11-27T02:07:54.592Z,116.45
2022-11-27T02:10:25.912Z,109.68
2022-11-27T02:13:00.776Z,124.75
2022-11-27T02:15:40.850Z,126.95
2022-11-27T02:18:18.333Z,123.93
2022-11-27T02:20:52.552Z,135.10
2022-11-27T02:23:43.990Z,132.70
2022-11-27T02:26:44.611Z,131.48
2022-11-27T02:29:15.521Z,132.65
2022-11-27T02:31:50.668Z,136.43
2022-11-27T02:34:26.668Z,121.93
2022-11-27T02:37:00.509Z,121.55
2022-11-27T02:39:34.858Z,115.00
2022-11-27T02:42:09.092Z,115.65
2022-11-27T02:44:44.876Z,107.60
2022-11-27T02:47:15.461Z,102.13
2022-11-27T02:49:45.400Z,94.88
2022-11-27T02:52:16.781Z,82.95
2022-11-27T02:54:49.048Z,73.13
2022-11-27T02:57:19.714Z,72.43
2022-11-27T02:59:51.393Z,64.70
2022-11-27T03:02:24.835Z,75.18
2022-11-27T03:04:57.052Z,74.95
2022-11-27T03:07:33.255Z,76.45
2022-11-27T03:10:07.451Z,78.47
2022-11-27T03:12:35.698Z,75.88
2022-11-27T03:15:05.795Z,73.32
2022-11-27T03:17:51.571Z,75.18
2022-11-27T03:20:24.913Z,80.30
2022-11-27T03:22:54.834Z,79.50
2022-11-27T03:25:23.342Z,76.35
2022-11-27T03:27:57.939Z,83.47
2022-11-27T03:30:27.558Z,80.07
2022-11-27T03:32:56.119Z,85.78
2022-11-27T03:35:27.111Z,85.60
2022-11-27T03:37:56.009Z,81.60
2022-11-27T03:40:30.688Z,76.45
2022-11-27T03:43:04.980Z,80.70
2022-11-27T03:45:41.697Z,80.15
2022-11-27T03:48:21.188Z,83.43
2022-11-27T03:50:59.282Z,84.28
2022-11-27T03:53:36.245Z,89.88
2022-11-27T03:56:11.737Z,91.68
2022-11-27T03:58:45.123Z,92.93
2022-11-27T04:01:18.219Z,95.70
2022-11-27T04:03:46.240Z,92.00
2022-11-27T04:06:14.323Z,98.28
2022-11-27T04:08:42.909Z,93.95
2022-11-27T04:11:10.949Z,85.13
2022-11-27T04:13:38.936Z,104.57
2022-11-27T04:16:07.884Z,99.93
2022-11-27T04:18:37.340Z,107.65
2022-11-27T04:21:05.606Z,106.85
2022-11-27T04:23:33.693Z,104.30
2022-11-27T04:26:01.870Z,106.18
2022-11-27T04:28:29.914Z,107.07
2022-11-27T04:30:58.150Z,110.38
2022-11-27T04:33:26.565Z,102.78
2022-11-27T04:35:55.967Z,102.25
2022-11-27T04:38:24.036Z,95.80
2022-11-27T04:40:52.931Z,96.38
2022-11-27T04:43:21.261Z,121.25
2022-11-27T04:45:49.331Z,123.18
2022-11-27T04:48:17.459Z,125.47
2022-11-27T04:50:45.519Z,139.95
2022-11-27T04:53:14.912Z,172.63
2022-11-27T04:55:42.929Z,160.07
2022-11-27T04:58:10.946Z,148.57
2022-11-27T05:00:39.137Z,139.15
2022-11-27T05:03:08.030Z,137.88
2022-11-27T05:05:36.239Z,135.25
2022-11-27T05:08:04.400Z,141.73
2022-11-27T05:10:33.744Z,146.23
2022-11-27T05:13:01.680Z,137.30
2022-11-27T05:15:29.726Z,149.13
2022-11-27T05:17:57.826Z,149.77
2022-11-27T05:20:25.874Z,144.90
2022-11-27T05:22:53.992Z,138.25
2022-11-27T05:25:21.976Z,129.32
2022-11-27T05:27:51.365Z,133.07
2022-11-27T05:30:19.324Z,137.20
2022-11-27T05:32:47.408Z,127.25
2022-11-27T05:35:15.565Z,126.85
2022-11-27T05:37:43.558Z,131.02
2022-11-27T05:40:12.078Z,139.23
2022-11-27T05:42:40.108Z,147.95
2022-11-27T05:45:10.400Z,135.18
2022-11-27T05:47:38.431Z,116.10
2022-11-27T05:50:07.544Z,143.13
2022-11-27T05:52:35.552Z,117.03
2022-11-27T05:55:03.599Z,122.63
2022-11-27T05:57:31.975Z,123.90
2022-11-27T06:00:00.101Z,150.05
2022-11-27T06:02:29.843Z,144.32
2022-11-27T06:04:58.078Z,128.13
2022-11-27T06:07:26.098Z,199.85
2022-11-27T06:09:54.176Z,150.02
2022-11-27T06:12:22.342Z,201.05
2022-11-27T06:14:50.409Z,216.18
2022-11-27T06:17:18.539Z,171.45
2022-11-27T06:19:48.064Z,191.68
2022-11-27T06:22:16.188Z,140.48
2022-11-27T06:24:44.208Z,154.13
2022-11-27T06:27:12.248Z,169.00
2022-11-27T06:29:40.347Z,156.82
2022-11-27T06:32:08.404Z,156.00
2022-11-27T06:34:36.508Z,132.30
2022-11-27T06:37:09.211Z,135.77
2022-11-27T06:39:40.960Z,145.73
2022-11-27T06:42:09.126Z,135.60
2022-11-27T06:44:37.189Z,160.38
2022-11-27T06:47:05.330Z,150.40
2022-11-27T06:49:33.418Z,123.97
2022-11-27T06:52:01.444Z,144.13
2022-11-27T06:54:31.063Z,132.10
2022-11-27T06:56:59.277Z,158.93
2022-11-27T06:59:27.319Z,125.43
2022-11-27T07:01:55.559Z,125.45
2022-11-27T07:04:23.712Z,129.90
2022-11-27T07:06:51.761Z,109.55
2022-11-27T07:09:19.732Z,101.68
2022-11-27T07:11:49.183Z,99.68
2022-11-27T07:14:17.309Z,111.55
2022-11-27T07:16:45.337Z,95.90
2022-11-27T07:19:14.687Z,120.60
2022-11-27T07:21:42.744Z,109.78
2022-11-27T07:24:10.776Z,157.73
2022-11-27T07:26:38.769Z,91.43
2022-11-27T07:29:08.302Z,109.30
2022-11-27T07:31:36.302Z,104.45
2022-11-27T07:34:08.677Z,100.20
2022-11-27T07:36:41.497Z,105.60
2022-11-27T07:39:09.615Z,92.05
2022-11-27T07:41:38.011Z,95.18
2022-11-27T07:44:07.554Z,86.72
2022-11-27T07:46:35.544Z,95.65
2022-11-27T07:49:03.928Z,101.97
2022-11-27T07:51:32.023Z,92.35
2022-11-27T07:54:01.276Z,87.18
2022-11-27T07:56:30.587Z,86.35
2022-11-27T07:58:59.019Z,73.28
2022-11-27T08:01:28.513Z,79.20
2022-11-27T08:03:56.519Z,75.85
2022-11-27T08:06:26.225Z,74.95
2022-11-27T08:08:56.674Z,71.47
2022-11-27T08:11:27.061Z,64.78
2022-11-27T08:13:58.418Z,69.28
2022-11-27T08:16:26.563Z,66.55
2022-11-27T08:18:56.132Z,65.88
2022-11-27T08:21:24.543Z,62.38
2022-11-27T08:23:52.727Z,64.00
2022-11-27T08:26:22.116Z,65.40
2022-11-27T08:28:52.980Z,65.22
2022-11-27T08:31:21.947Z,45.33
2022-11-27T08:33:50.344Z,52.40
2022-11-27T08:36:19.825Z,48.63
2022-11-27T08:38:48.134Z,47.92
2022-11-27T08:41:16.214Z,41.65
2022-11-27T08:43:44.260Z,43.72
2022-11-27T08:46:12.974Z,45.33
2022-11-27T08:48:41.870Z,39.63
2022-11-27T08:51:11.563Z,41.13
2022-11-27T08:53:41.817Z,43.67
2022-11-27T08:56:13.441Z,30.65
2022-11-27T08:58:41.827Z,27.08
2022-11-27T09:01:12.536Z,25.42
2022-11-27T09:03:40.773Z,31.92
2022-11-27T09:06:10.601Z,27.55
2022-11-27T09:08:40.918Z,28.27
2022-11-27T09:11:10.057Z,30.77
2022-11-27T09:13:40.408Z,30.80
2022-11-27T09:16:11.515Z,31.35
2022-11-27T09:18:39.633Z,33.00
2022-11-27T09:21:10.114Z,32.35
2022-11-27T09:23:38.607Z,37.55
2022-11-27T09:26:10.584Z,32.08
2022-11-27T09:28:40.057Z,34.45
2022-11-27T09:31:09.800Z,36.60
2022-11-27T09:33:39.714Z,34.38
2022-11-27T09:36:10.391Z,37.28
2022-11-27T09:38:39.027Z,48.53
2022-11-27T09:41:27.690Z,49.20
2022-11-27T09:43:58.947Z,47.90
2022-11-27T09:46:32.760Z,49.20
2022-11-27T09:49:04.152Z,45.95
2022-11-27T09:51:35.809Z,47.35
2022-11-27T09:54:09.576Z,49.70
2022-11-27T09:56:39.131Z,49.13
2022-11-27T09:59:17.349Z,48.83
2022-11-27T10:01:50.679Z,56.00
2022-11-27T10:04:21.595Z,66.80
2022-11-27T10:07:06.566Z,61.95
2022-11-27T10:09:49.289Z,53.08
2022-11-27T10:12:26.978Z,61.40
2022-11-27T10:15:04.948Z,55.38
2022-11-27T10:17:38.062Z,55.53
2022-11-27T10:20:18.058Z,47.03
2022-11-27T10:22:56.045Z,95.10
2022-11-27T10:25:31.039Z,59.78
2022-11-27T10:30:40.439Z,52.60
2022-11-27T10:33:17.564Z,50.90
2022-11-27T10:35:48.734Z,51.20
2022-11-27T10:38:21.254Z,55.90
2022-11-27T10:40:57.069Z,49.55
2022-11-27T10:43:27.303Z,57.38
2022-11-27T10:45:58.864Z,59.92
2022-11-27T10:48:27.871Z,56.63
2022-11-27T10:50:55.926Z,55.70
2022-11-27T10:53:28.429Z,54.33
2022-11-27T10:56:10.915Z,55.58
2022-11-27T10:58:46.866Z,54.75
2022-11-27T11:01:18.040Z,55.45
2022-11-27T11:03:46.642Z,54.08
2022-11-27T11:06:22.296Z,52.45
2022-11-27T11:09:02.639Z,58.47
2022-11-27T11:11:30.710Z,51.70
2022-11-27T11:14:00.147Z,49.70
2022-11-27T11:16:34.771Z,49.67
2022-11-27T11:19:03.768Z,50.55
2022-11-27T11:21:34.309Z,51.28
2022-11-27T11:24:05.152Z,48.63
2022-11-27T11:26:37.143Z,52.10
2022-11-27T11:29:16.685Z,50.83
2022-11-27T11:31:45.901Z,57.20
2022-11-27T11:34:21.350Z,56.67
2022-11-27T11:36:57.597Z,69.30
2022-11-27T11:39:28.892Z,65.03
2022-11-27T11:41:57.681Z,75.78
2022-11-27T11:44:36.716Z,59.47
2022-11-27T11:47:04.842Z,52.90
2022-11-27T11:49:35.460Z,56.78
2022-11-27T11:52:22.136Z,51.80
2022-11-27T11:54:59.442Z,56.25
2022-11-27T11:58:03.544Z,55.55
2022-11-27T12:00:58.581Z,47.03
2022-11-27T12:03:41.588Z,46.67
2022-11-27T12:06:33.856Z,42.78
2022-11-27T12:09:15.751Z,48.15
2022-11-27T12:11:50.321Z,45.65
2022-11-27T12:14:31.057Z,46.15
2022-11-27T12:17:14.170Z,44.03
2022-11-27T12:20:00.965Z,42.65
2022-11-27T12:22:52.608Z,46.33
2022-11-27T12:25:30.362Z,47.42
2022-11-27T12:28:11.319Z,46.65
2022-11-27T12:30:48.567Z,45.03
2022-11-27T12:33:39.388Z,45.38
2022-11-27T12:36:15.031Z,49.13
2022-11-27T12:39:04.510Z,47.45
2022-11-27T12:42:00.219Z,46.00
2022-11-27T12:44:36.521Z,48.75
2022-11-27T12:47:11.157Z,46.67
2022-11-27T12:49:46.693Z,46.17
2022-11-27T12:52:19.226Z,42.85
2022-11-27T12:54:52.809Z,45.75
2022-11-27T12:57:25.243Z,49.05
2022-11-27T12:59:58.644Z,65.70
2022-11-27T13:02:32.851Z,59.05
2022-11-27T13:05:07.077Z,55.05
2022-11-27T13:07:44.579Z,49.60
2022-11-27T13:10:21.644Z,57.60
2022-11-27T13:12:57.125Z,55.50
2022-11-27T13:15:30.437Z,59.10
2022-11-27T13:18:04.473Z,57.03
2022-11-27T13:20:39.587Z,54.47
2022-11-27T13:23:09.210Z,53.15
2022-11-27T13:25:45.032Z,61.45
2022-11-27T13:28:22.618Z,59.15
2022-11-27T13:30:53.152Z,68.15
2022-11-27T13:33:38.133Z,60.47
2022-11-27T13:36:19.488Z,66.90
2022-11-27T13:38:54.487Z,83.40
2022-11-27T13:43:53.296Z,64.55
2022-11-27T13:46:25.975Z,60.13
2022-11-27T13:48:56.774Z,68.82
2022-11-27T13:51:29.270Z,58.00
2022-11-27T13:54:09.090Z,56.10
2022-11-27T13:56:37.322Z,52.75
2022-11-27T13:59:15.938Z,61.90
2022-11-27T14:01:55.361Z,65.10
2022-11-27T14:04:23.487Z,65.65
2022-11-27T14:06:59.207Z,64.28
2022-11-27T14:09:36.575Z,74.97
2022-11-27T14:12:16.838Z,74.53
2022-11-27T14:15:03.712Z,65.53
2022-11-27T14:17:38.929Z,65.63
2022-11-27T14:20:21.322Z,78.95
2022-11-27T14:23:12.405Z,74.63
2022-11-27T14:25:41.399Z,71.00
2022-11-27T14:28:16.648Z,65.35
2022-11-27T14:30:49.173Z,90.45
2022-11-27T14:33:21.748Z,59.40
2022-11-27T14:35:51.201Z,61.35
2022-11-27T14:38:20.977Z,62.75
2022-11-27T14:40:50.351Z,65.03
2022-11-27T14:43:20.509Z,60.42
2022-11-27T14:45:52.146Z,65.53
2022-11-27T14:48:23.496Z,61.50
2022-11-27T14:50:53.893Z,68.55
2022-11-27T14:53:27.893Z,61.80
2022-11-27T14:55:58.826Z,64.40
2022-11-27T14:58:29.079Z,60.72
2022-11-27T15:01:03.425Z,68.60
2022-11-27T15:03:31.952Z,60.60
2022-11-27T15:06:01.894Z,60.13
2022-11-27T15:08:35.832Z,61.90
2022-11-27T15:11:06.156Z,64.00
2022-11-27T15:13:37.021Z,63.30
2022-11-27T15:16:08.313Z,77.90
2022-11-27T15:18:38.884Z,88.82
2022-11-27T15:21:11.795Z,87.55
2022-11-27T15:23:46.128Z,94.97
2022-11-27T15:26:21.164Z,101.35
2022-11-27T15:28:54.129Z,104.28
2022-11-27T15:31:28.075Z,105.65
2022-11-27T15:33:58.437Z,119.30
2022-11-27T15:36:27.015Z,93.68
2022-11-27T15:39:06.726Z,72.90
2022-11-27T15:41:37.405Z,78.43
2022-11-27T15:44:10.285Z,79.20
2022-11-27T15:46:38.422Z,101.35
2022-11-27T15:49:09.765Z,183.60
2022-11-27T15:51:37.883Z,165.82
2022-11-27T15:54:07.463Z,193.73
2022-11-27T15:56:35.510Z,119.13
2022-11-27T15:59:03.488Z,82.45
2022-11-27T16:01:31.695Z,72.25
2022-11-27T16:03:59.765Z,65.43
2022-11-27T16:06:27.799Z,75.28
2022-11-27T16:08:56.489Z,96.85
2022-11-27T16:11:27.228Z,108.07
2022-11-27T16:13:55.284Z,134.80
2022-11-27T16:16:24.073Z,101.18
2022-11-27T16:18:52.183Z,99.10
2022-11-27T16:21:21.705Z,106.55
2022-11-27T16:23:51.330Z,111.85
2022-11-27T16:26:19.460Z,78.90
2022-11-27T16:28:49.169Z,84.68
2022-11-27T16:31:17.296Z,93.63
2022-11-27T16:33:45.367Z,88.10
2022-11-27T16:36:15.543Z,81.03
2022-11-27T16:38:43.863Z,85.60
2022-11-27T16:41:13.865Z,82.15
2022-11-27T16:43:43.952Z,85.13
2022-11-27T16:46:15.736Z,90.15
2022-11-27T16:48:45.854Z,85.88
2022-11-27T16:51:15.445Z,87.10
2022-11-27T16:53:45.339Z,87.55
2022-11-27T16:56:16.214Z,89.15
2022-11-27T16:58:45.929Z,113.65
2022-11-27T17:01:17.423Z,114.30
2022-11-27T17:03:45.634Z,109.78
2022-11-27T17:06:15.894Z,152.18
2022-11-27T17:08:44.065Z,132.38
2022-11-27T17:11:13.614Z,704.67
2022-11-27T17:13:41.954Z,309.48
2022-11-27T17:16:10.172Z,121.20
2022-11-27T17:18:40.818Z,140.18
2022-11-27T17:21:10.718Z,310.92
2022-11-27T17:23:43.078Z,229.15
2022-11-27T17:26:12.633Z,365.00
2022-11-27T17:28:40.671Z,147.98
2022-11-27T17:31:12.095Z,156.23
2022-11-27T17:33:41.553Z,115.68
2022-11-27T17:36:10.146Z,139.15
2022-11-27T17:38:38.214Z,158.18
2022-11-27T17:41:08.254Z,238.95
2022-11-27T17:43:37.367Z,146.68
2022-11-27T17:46:08.929Z,157.38
2022-11-27T17:48:37.394Z,255.10
2022-11-27T17:51:08.328Z,258.10
2022-11-27T17:53:36.716Z,197.07
2022-11-27T17:56:05.503Z,179.40
2022-11-27T17:58:33.588Z,153.00
2022-11-27T18:01:01.966Z,160.10
2022-11-27T18:03:30.113Z,157.85
2022-11-27T18:05:58.216Z,178.20
2022-11-27T18:08:27.677Z,153.73
2022-11-27T18:10:55.943Z,163.23
2022-11-27T18:13:26.394Z,180.23
2022-11-27T18:15:54.415Z,156.15
2022-11-27T18:18:22.511Z,190.48
2022-11-27T18:20:51.160Z,188.23
2022-11-27T18:23:19.214Z,186.85
2022-11-27T18:25:49.177Z,172.88
2022-11-27T18:28:17.267Z,163.35
2022-11-27T18:30:45.266Z,131.02
2022-11-27T18:33:13.366Z,131.48
2022-11-27T18:35:42.804Z,217.45
2022-11-27T18:38:10.846Z,239.02
2022-11-27T18:40:41.533Z,238.35
2022-11-27T18:43:11.437Z,218.98
2022-11-27T18:45:39.514Z,226.48
2022-11-27T18:48:07.820Z,170.23
2022-11-27T18:50:36.289Z,138.52
2022-11-27T18:53:04.812Z,134.95
2022-11-27T18:55:35.947Z,168.95
2022-11-27T18:58:03.937Z,200.10
2022-11-27T19:00:33.337Z,163.07
2022-11-27T19:03:01.356Z,158.45
2022-11-27T19:05:29.426Z,162.73
2022-11-27T19:07:59.110Z,153.40
2022-11-27T19:10:27.214Z,145.95
2022-11-27T19:12:55.247Z,145.13
2022-11-27T19:15:23.223Z,155.30
2022-11-27T19:17:52.594Z,175.98
2022-11-27T19:20:20.695Z,326.50
2022-11-27T19:22:48.699Z,204.77
2022-11-27T19:25:16.761Z,202.50
2022-11-27T19:27:44.764Z,216.80
2022-11-27T19:30:13.727Z,460.83
2022-11-27T19:32:41.797Z,336.80
2022-11-27T19:35:11.585Z,216.35
2022-11-27T19:37:39.573Z,218.43
2022-11-27T19:40:09.193Z,219.15
2022-11-27T19:42:37.211Z,238.68
2022-11-27T19:45:06.199Z,236.52
2022-11-27T19:47:34.255Z,307.08
2022-11-27T19:50:02.275Z,258.20
2022-11-27T19:52:32.388Z,240.13
2022-11-27T19:55:00.384Z,205.02
2022-11-27T19:57:28.420Z,210.32
2022-11-27T19:59:56.632Z,229.75
2022-11-27T20:02:24.799Z,208.55
2022-11-27T20:04:53.274Z,222.27
2022-11-27T20:07:21.475Z,207.45
2022-11-27T20:09:52.241Z,181.15
2022-11-27T20:12:20.314Z,194.13
2022-11-27T20:14:48.299Z,185.25
2022-11-27T20:17:16.488Z,184.15
2022-11-27T20:19:44.678Z,211.77
2022-11-27T20:22:12.934Z,197.50
2022-11-27T20:24:58.415Z,194.60
2022-11-27T20:27:30.534Z,183.40
2022-11-27T20:30:00.254Z,191.75
2022-11-27T20:32:28.286Z,148.07
2022-11-27T20:34:56.393Z,139.05
2022-11-27T20:37:24.454Z,139.52
2022-11-27T20:39:52.467Z,125.95
2022-11-27T20:42:22.324Z,123.75
2022-11-27T20:44:51.742Z,119.15
2022-11-27T20:47:19.791Z,116.80
2022-11-27T20:49:47.837Z,121.35
2022-11-27T20:52:15.949Z,119.88
2022-11-27T20:54:44.543Z,116.32
2022-11-27T20:57:14.604Z,120.00
2022-11-27T20:59:43.157Z,133.05
2022-11-27T21:02:13.460Z,120.05
2022-11-27T21:04:41.664Z,118.07
2022-11-27T21:07:10.741Z,142.15
2022-11-27T21:09:38.924Z,176.95
2022-11-27T21:12:07.468Z,146.07
2022-11-27T21:14:36.005Z,126.57
2022-11-27T21:17:05.258Z,140.07
2022-11-27T21:19:34.868Z,110.15
2022-11-27T21:22:02.948Z,115.63
2022-11-27T21:24:31.091Z,119.78
2022-11-27T21:26:59.216Z,126.55
2022-11-27T21:29:28.585Z,121.50
2022-11-27T21:31:57.217Z,116.75
2022-11-27T21:34:25.816Z,108.68
2022-11-27T21:36:55.678Z,119.63
2022-11-27T21:39:24.937Z,139.75
2022-11-27T21:41:54.884Z,157.40
2022-11-27T21:44:24.112Z,157.90
2022-11-27T21:46:52.655Z,163.10
2022-11-27T21:49:21.813Z,159.45
2022-11-27T21:51:52.394Z,171.45
2022-11-27T21:54:22.117Z,166.52
2022-11-27T21:56:52.797Z,164.32
2022-11-27T21:59:20.912Z,149.23
2022-11-27T22:01:49.198Z,134.75
2022-11-27T22:04:17.692Z,139.93
2022-11-27T22:06:46.303Z,158.50
2022-11-27T22:09:16.124Z,194.15
2022-11-27T22:11:47.140Z,177.50
2022-11-27T22:14:16.454Z,179.38
2022-11-27T22:16:46.445Z,168.02
2022-11-27T22:19:15.494Z,173.15
2022-11-27T22:21:44.298Z,171.48
2022-11-27T22:24:18.262Z,165.98
2022-11-27T22:26:48.915Z,147.93
2022-11-27T22:29:17.339Z,133.13
2022-11-27T22:31:45.384Z,140.77
2022-11-27T22:34:13.414Z,136.95
2022-11-27T22:36:41.444Z,151.90
2022-11-27T22:39:10.043Z,142.85
2022-11-27T22:41:39.403Z,135.48
2022-11-27T22:44:10.031Z,147.02
2022-11-27T22:46:41.233Z,153.20
2022-11-27T22:49:12.989Z,151.82
2022-11-27T22:51:41.610Z,147.88
2022-11-27T22:54:12.317Z,144.52
2022-11-27T22:56:40.871Z,156.23
2022-11-27T23:02:00.852Z,163.07
2022-11-27T23:04:29.038Z,176.02
2022-11-27T23:06:56.960Z,152.60
2022-11-27T23:09:24.971Z,139.77
2022-11-27T23:11:53.354Z,142.85
2022-11-27T23:14:22.785Z,137.32
2022-11-27T23:16:51.324Z,183.25
2022-11-27T23:19:19.646Z,158.45
2022-11-27T23:21:47.778Z,172.07
2022-11-27T23:24:16.378Z,156.40
2022-11-27T23:26:45.871Z,171.98
2022-11-27T23:29:14.226Z,161.82
2022-11-27T23:31:43.809Z,185.93
2022-11-27T23:34:16.052Z,184.82
2022-11-27T23:36:44.355Z,202.68
2022-11-27T23:39:13.682Z,193.50
2022-11-27T23:41:41.934Z,195.60
2022-11-27T23:44:10.092Z,162.50
2022-11-27T23:46:38.232Z,177.57
2022-11-27T23:49:07.668Z,162.50
2022-11-27T23:51:35.678Z,195.98
2022-11-27T23:54:08.097Z,167.15
2022-11-27T23:56:36.456Z,173.73
2022-11-27T23:59:05.086Z,159.40
